sensor_id;sensor_type;location;lat;lon;timestamp;pressure;altitude;pressure_sealevel;temperature;humidity
32638;BME280;19045;52.268;10.506;2023-05-10T00:01:20;99855.22;;;13.71;60.80
32638;BME280;19045;52.268;10.506;2023-05-10T00:03:47;99838.94;;;13.76;60.67
32638;BME280;19045;52.268;10.506;2023-05-10T00:06:13;99853.91;;;13.68;61.24
32638;BME280;19045;52.268;10.506;2023-05-10T00:08:40;99834.69;;;13.70;61.25
32638;BME280;19045;52.268;10.506;2023-05-10T00:11:07;99842.78;;;13.70;61.51
32638;BME280;19045;52.268;10.506;2023-05-10T00:13:33;99835.38;;;13.62;61.51
32638;BME280;19045;52.268;10.506;2023-05-10T00:16:01;99836.09;;;13.67;61.65
32638;BME280;19045;52.268;10.506;2023-05-10T00:18:28;99830.56;;;13.59;61.72
32638;BME280;19045;52.268;10.506;2023-05-10T00:20:55;99830.97;;;13.66;61.83
32638;BME280;19045;52.268;10.506;2023-05-10T00:23:21;99819.00;;;13.53;62.30
32638;BME280;19045;52.268;10.506;2023-05-10T00:25:48;99824.34;;;13.58;62.08
32638;BME280;19045;52.268;10.506;2023-05-10T00:28:14;99818.44;;;13.56;62.46
32638;BME280;19045;52.268;10.506;2023-05-10T00:30:41;99818.16;;;13.58;62.20
32638;BME280;19045;52.268;10.506;2023-05-10T00:33:09;99812.53;;;13.54;62.66
32638;BME280;19045;52.268;10.506;2023-05-10T00:35:36;99823.09;;;13.51;62.74
32638;BME280;19045;52.268;10.506;2023-05-10T00:38:03;99822.81;;;13.52;62.79
32638;BME280;19045;52.268;10.506;2023-05-10T00:40:30;99825.22;;;13.54;62.56
32638;BME280;19045;52.268;10.506;2023-05-10T00:42:56;99831.13;;;13.56;62.29
32638;BME280;19045;52.268;10.506;2023-05-10T00:45:24;99829.00;;;13.53;62.73
32638;BME280;19045;52.268;10.506;2023-05-10T00:47:51;99828.22;;;13.52;62.64
32638;BME280;19045;52.268;10.506;2023-05-10T00:50:22;99829.00;;;13.53;62.33
32638;BME280;19045;52.268;10.506;2023-05-10T00:52:49;99828.00;;;13.49;62.05
32638;BME280;19045;52.268;10.506;2023-05-10T00:55:16;99823.03;;;13.56;62.26
32638;BME280;19045;52.268;10.506;2023-05-10T00:57:44;99815.22;;;13.54;62.35
32638;BME280;19045;52.268;10.506;2023-05-10T01:00:12;99816.69;;;13.46;62.82
32638;BME280;19045;52.268;10.506;2023-05-10T01:02:43;99812.94;;;13.42;62.71
32638;BME280;19045;52.268;10.506;2023-05-10T01:05:09;99812.44;;;13.40;62.72
32638;BME280;19045;52.268;10.506;2023-05-10T01:07:37;99815.88;;;13.46;62.70
32638;BME280;19045;52.268;10.506;2023-05-10T01:10:05;99808.34;;;13.43;62.82
32638;BME280;19045;52.268;10.506;2023-05-10T01:12:32;99814.56;;;13.43;62.54
32638;BME280;19045;52.268;10.506;2023-05-10T01:15:00;99806.56;;;13.38;62.64
32638;BME280;19045;52.268;10.506;2023-05-10T01:17:27;99814.66;;;13.38;62.63
32638;BME280;19045;52.268;10.506;2023-05-10T01:19:54;99807.91;;;13.36;62.82
32638;BME280;19045;52.268;10.506;2023-05-10T01:23:01;99807.69;;;13.32;62.97
32638;BME280;19045;52.268;10.506;2023-05-10T01:25:55;99810.91;;;13.34;62.77
32638;BME280;19045;52.268;10.506;2023-05-10T01:31:30;99811.50;;;13.31;63.52
32638;BME280;19045;52.268;10.506;2023-05-10T01:34:09;99813.16;;;13.27;63.67
32638;BME280;19045;52.268;10.506;2023-05-10T01:36:43;99818.81;;;13.26;63.52
32638;BME280;19045;52.268;10.506;2023-05-10T01:39:15;99820.28;;;13.18;63.33
32638;BME280;19045;52.268;10.506;2023-05-10T01:41:47;99813.56;;;13.16;63.50
32638;BME280;19045;52.268;10.506;2023-05-10T01:44:18;99801.63;;;12.98;64.70
32638;BME280;19045;52.268;10.506;2023-05-10T01:46:50;99814.03;;;12.99;64.16
32638;BME280;19045;52.268;10.506;2023-05-10T01:49:23;99807.75;;;13.04;64.34
32638;BME280;19045;52.268;10.506;2023-05-10T01:51:53;99807.53;;;13.00;64.42
32638;BME280;19045;52.268;10.506;2023-05-10T01:54:22;99818.38;;;12.95;64.99
32638;BME280;19045;52.268;10.506;2023-05-10T01:56:55;99808.63;;;12.99;64.42
32638;BME280;19045;52.268;10.506;2023-05-10T01:59:29;99807.03;;;12.98;64.52
32638;BME280;19045;52.268;10.506;2023-05-10T02:01:58;99803.28;;;12.94;65.37
32638;BME280;19045;52.268;10.506;2023-05-10T02:04:27;99813.81;;;12.95;64.89
32638;BME280;19045;52.268;10.506;2023-05-10T02:06:55;99800.09;;;12.92;64.75
32638;BME280;19045;52.268;10.506;2023-05-10T02:09:23;99806.00;;;12.94;64.80
32638;BME280;19045;52.268;10.506;2023-05-10T02:11:52;99804.09;;;12.94;65.19
32638;BME280;19045;52.268;10.506;2023-05-10T02:14:20;99802.56;;;12.88;65.67
32638;BME280;19045;52.268;10.506;2023-05-10T02:16:50;99810.66;;;12.88;65.33
32638;BME280;19045;52.268;10.506;2023-05-10T02:19:19;99808.53;;;12.85;65.07
32638;BME280;19045;52.268;10.506;2023-05-10T02:21:49;99805.06;;;12.80;66.04
32638;BME280;19045;52.268;10.506;2023-05-10T02:24:17;99804.56;;;12.78;65.84
32638;BME280;19045;52.268;10.506;2023-05-10T02:26:45;99812.56;;;12.83;66.00
32638;BME280;19045;52.268;10.506;2023-05-10T02:29:13;99797.78;;;12.80;66.07
32638;BME280;19045;52.268;10.506;2023-05-10T02:31:40;99801.56;;;12.79;66.23
32638;BME280;19045;52.268;10.506;2023-05-10T02:34:09;99798.59;;;12.81;65.91
32638;BME280;19045;52.268;10.506;2023-05-10T02:36:38;99800.78;;;12.79;65.40
32638;BME280;19045;52.268;10.506;2023-05-10T02:39:07;99798.19;;;12.69;66.69
32638;BME280;19045;52.268;10.506;2023-05-10T02:41:38;99799.56;;;12.66;66.59
32638;BME280;19045;52.268;10.506;2023-05-10T02:44:07;99796.00;;;12.71;66.51
32638;BME280;19045;52.268;10.506;2023-05-10T02:46:34;99796.06;;;12.66;66.08
32638;BME280;19045;52.268;10.506;2023-05-10T02:49:02;99803.22;;;12.52;67.22
32638;BME280;19045;52.268;10.506;2023-05-10T02:51:31;99799.44;;;12.53;67.34
32638;BME280;19045;52.268;10.506;2023-05-10T02:54:03;99801.75;;;12.64;66.77
32638;BME280;19045;52.268;10.506;2023-05-10T02:56:36;99798.56;;;12.57;66.73
32638;BME280;19045;52.268;10.506;2023-05-10T02:59:04;99804.19;;;12.61;66.75
32638;BME280;19045;52.268;10.506;2023-05-10T03:01:31;99794.06;;;12.53;66.97
32638;BME280;19045;52.268;10.506;2023-05-10T03:03:58;99792.47;;;12.47;67.50
32638;BME280;19045;52.268;10.506;2023-05-10T03:06:25;99790.31;;;12.49;67.58
32638;BME280;19045;52.268;10.506;2023-05-10T03:08:51;99794.34;;;12.51;67.84
32638;BME280;19045;52.268;10.506;2023-05-10T03:11:32;99783.78;;;12.55;67.14
32638;BME280;19045;52.268;10.506;2023-05-10T03:14:21;99783.81;;;12.50;67.75
32638;BME280;19045;52.268;10.506;2023-05-10T03:16:58;99795.19;;;12.47;68.05
32638;BME280;19045;52.268;10.506;2023-05-10T03:19:32;99794.41;;;12.46;68.09
32638;BME280;19045;52.268;10.506;2023-05-10T03:22:05;99791.97;;;12.44;68.30
32638;BME280;19045;52.268;10.506;2023-05-10T03:24:35;99795.47;;;12.45;67.72
32638;BME280;19045;52.268;10.506;2023-05-10T03:27:03;99795.38;;;12.55;67.39
32638;BME280;19045;52.268;10.506;2023-05-10T03:29:32;99796.19;;;12.56;67.29
32638;BME280;19045;52.268;10.506;2023-05-10T03:31:59;99794.56;;;12.55;67.58
32638;BME280;19045;52.268;10.506;2023-05-10T03:34:26;99784.28;;;12.57;67.68
32638;BME280;19045;52.268;10.506;2023-05-10T03:36:52;99795.31;;;12.60;67.95
32638;BME280;19045;52.268;10.506;2023-05-10T03:39:19;99795.38;;;12.55;67.62
32638;BME280;19045;52.268;10.506;2023-05-10T03:41:46;99799.44;;;12.53;68.08
32638;BME280;19045;52.268;10.506;2023-05-10T03:44:13;99796.13;;;12.61;67.19
32638;BME280;19045;52.268;10.506;2023-05-10T03:46:41;99789.91;;;12.60;68.00
32638;BME280;19045;52.268;10.506;2023-05-10T03:49:07;99798.34;;;12.54;68.69
32638;BME280;19045;52.268;10.506;2023-05-10T03:51:34;99790.84;;;12.51;68.06
32638;BME280;19045;52.268;10.506;2023-05-10T03:54:00;99788.38;;;12.54;68.27
32638;BME280;19045;52.268;10.506;2023-05-10T03:56:27;99806.09;;;12.60;68.46
32638;BME280;19045;52.268;10.506;2023-05-10T03:58:53;99791.63;;;12.51;68.32
32638;BME280;19045;52.268;10.506;2023-05-10T04:01:20;99791.63;;;12.51;68.46
32638;BME280;19045;52.268;10.506;2023-05-10T04:03:48;99778.91;;;12.57;68.49
32638;BME280;19045;52.268;10.506;2023-05-10T04:06:15;99789.00;;;12.70;67.73
32638;BME280;19045;52.268;10.506;2023-05-10T04:08:41;99786.16;;;12.61;68.25
32638;BME280;19045;52.268;10.506;2023-05-10T04:11:09;99792.34;;;12.62;68.88
32638;BME280;19045;52.268;10.506;2023-05-10T04:13:36;99791.56;;;12.56;67.87
32638;BME280;19045;52.268;10.506;2023-05-10T04:16:03;99789.91;;;12.60;68.99
32638;BME280;19045;52.268;10.506;2023-05-10T04:18:33;99787.53;;;12.59;68.61
32638;BME280;19045;52.268;10.506;2023-05-10T04:21:01;99782.13;;;12.59;68.80
32638;BME280;19045;52.268;10.506;2023-05-10T04:23:28;99785.91;;;12.58;68.98
32638;BME280;19045;52.268;10.506;2023-05-10T04:25:59;99781.44;;;12.48;69.56
32638;BME280;19045;52.268;10.506;2023-05-10T04:28:26;99778.16;;;12.51;69.06
32638;BME280;19045;52.268;10.506;2023-05-10T04:30:53;99795.94;;;12.52;70.17
32638;BME280;19045;52.268;10.506;2023-05-10T04:33:19;99793.75;;;12.54;69.36
32638;BME280;19045;52.268;10.506;2023-05-10T04:35:46;99790.03;;;12.50;70.01
32638;BME280;19045;52.268;10.506;2023-05-10T04:38:14;99789.19;;;12.55;69.70
32638;BME280;19045;52.268;10.506;2023-05-10T04:40:41;99795.72;;;12.49;69.87
32638;BME280;19045;52.268;10.506;2023-05-10T04:43:07;99785.69;;;12.54;70.32
32638;BME280;19045;52.268;10.506;2023-05-10T04:45:34;99797.84;;;12.52;70.60
32638;BME280;19045;52.268;10.506;2023-05-10T04:48:03;99797.03;;;12.51;71.28
32638;BME280;19045;52.268;10.506;2023-05-10T04:50:30;99801.09;;;12.49;70.68
32638;BME280;19045;52.268;10.506;2023-05-10T04:52:57;99799.81;;;12.41;71.27
32638;BME280;19045;52.268;10.506;2023-05-10T04:55:25;99802.75;;;12.44;72.05
32638;BME280;19045;52.268;10.506;2023-05-10T04:57:52;99811.97;;;12.38;71.02
32638;BME280;19045;52.268;10.506;2023-05-10T05:00:20;99816.50;;;12.43;71.77
32638;BME280;19045;52.268;10.506;2023-05-10T05:02:47;99815.13;;;12.46;71.41
32638;BME280;19045;52.268;10.506;2023-05-10T05:05:14;99811.44;;;12.36;71.87
32638;BME280;19045;52.268;10.506;2023-05-10T05:07:40;99813.03;;;12.37;72.19
32638;BME280;19045;52.268;10.506;2023-05-10T05:10:08;99815.13;;;12.46;72.82
32638;BME280;19045;52.268;10.506;2023-05-10T05:12:36;99818.34;;;12.48;72.67
32638;BME280;19045;52.268;10.506;2023-05-10T05:15:03;99826.16;;;12.49;72.47
32638;BME280;19045;52.268;10.506;2023-05-10T05:17:30;99825.91;;;12.46;72.17
32638;BME280;19045;52.268;10.506;2023-05-10T05:19:56;99828.63;;;12.40;73.27
32638;BME280;19045;52.268;10.506;2023-05-10T05:22:23;99828.59;;;12.46;72.89
32638;BME280;19045;52.268;10.506;2023-05-10T05:24:53;99829.97;;;12.43;73.16
32638;BME280;19045;52.268;10.506;2023-05-10T05:27:19;99829.44;;;12.41;72.96
32638;BME280;19045;52.268;10.506;2023-05-10T05:29:49;99831.53;;;12.49;73.03
32638;BME280;19045;52.268;10.506;2023-05-10T05:32:15;99830.50;;;12.45;73.59
32638;BME280;19045;52.268;10.506;2023-05-10T05:34:44;99832.84;;;12.52;73.89
32638;BME280;19045;52.268;10.506;2023-05-10T05:37:13;99826.41;;;12.53;73.83
32638;BME280;19045;52.268;10.506;2023-05-10T05:39:39;99833.56;;;12.62;74.17
32638;BME280;19045;52.268;10.506;2023-05-10T05:42:06;99838.97;;;12.62;75.17
32638;BME280;19045;52.268;10.506;2023-05-10T05:44:32;99852.94;;;12.64;75.18
32638;BME280;19045;52.268;10.506;2023-05-10T05:47:00;99848.28;;;12.70;75.33
32638;BME280;19045;52.268;10.506;2023-05-10T05:49:27;99849.06;;;12.75;75.77
32638;BME280;19045;52.268;10.506;2023-05-10T05:51:54;99853.31;;;12.81;75.51
32638;BME280;19045;52.268;10.506;2023-05-10T05:54:20;99853.47;;;12.90;74.78
32638;BME280;19045;52.268;10.506;2023-05-10T05:56:47;99851.44;;;13.06;75.89
32638;BME280;19045;52.268;10.506;2023-05-10T05:59:13;99844.34;;;13.15;75.07
32638;BME280;19045;52.268;10.506;2023-05-10T06:01:40;99849.84;;;13.00;75.06
32638;BME280;19045;52.268;10.506;2023-05-10T06:04:08;99849.28;;;13.03;74.83
32638;BME280;19045;52.268;10.506;2023-05-10T06:06:34;99850.66;;;13.00;75.05
32638;BME280;19045;52.268;10.506;2023-05-10T06:09:01;99859.56;;;13.01;76.36
32638;BME280;19045;52.268;10.506;2023-05-10T06:11:28;99859.13;;;13.17;76.00
32638;BME280;19045;52.268;10.506;2023-05-10T06:13:55;99854.44;;;13.28;75.36
32638;BME280;19045;52.268;10.506;2023-05-10T06:16:22;99860.72;;;13.42;74.98
32638;BME280;19045;52.268;10.506;2023-05-10T06:18:49;99865.38;;;13.36;75.83
32638;BME280;19045;52.268;10.506;2023-05-10T06:21:17;99865.34;;;13.18;76.84
32638;BME280;19045;52.268;10.506;2023-05-10T06:23:44;99864.25;;;13.19;77.09
32638;BME280;19045;52.268;10.506;2023-05-10T06:26:10;99861.13;;;13.30;76.83
32638;BME280;19045;52.268;10.506;2023-05-10T06:28:39;99864.06;;;13.34;76.55
32638;BME280;19045;52.268;10.506;2023-05-10T06:31:06;99868.59;;;13.38;76.69
32638;BME280;19045;52.268;10.506;2023-05-10T06:33:33;99875.78;;;13.24;77.04
32638;BME280;19045;52.268;10.506;2023-05-10T06:35:59;99870.72;;;13.18;77.67
32638;BME280;19045;52.268;10.506;2023-05-10T06:38:28;99874.16;;;13.23;78.78
32638;BME280;19045;52.268;10.506;2023-05-10T06:40:55;99891.50;;;13.17;78.76
32638;BME280;19045;52.268;10.506;2023-05-10T06:43:22;99887.75;;;13.13;79.16
32638;BME280;19045;52.268;10.506;2023-05-10T06:45:50;99894.72;;;12.90;80.67
32638;BME280;19045;52.268;10.506;2023-05-10T06:48:17;99902.50;;;12.68;82.85
32638;BME280;19045;52.268;10.506;2023-05-10T06:50:43;99914.03;;;12.40;84.67
32638;BME280;19045;52.268;10.506;2023-05-10T06:53:10;99916.22;;;12.33;86.38
32638;BME280;19045;52.268;10.506;2023-05-10T06:55:39;99915.22;;;12.24;88.41
32638;BME280;19045;52.268;10.506;2023-05-10T06:58:06;99922.56;;;12.18;90.10
32638;BME280;19045;52.268;10.506;2023-05-10T07:00:33;99927.69;;;12.15;91.17
32638;BME280;19045;52.268;10.506;2023-05-10T07:02:59;99913.41;;;12.19;92.40
32638;BME280;19045;52.268;10.506;2023-05-10T07:05:26;99908.41;;;12.36;93.11
32638;BME280;19045;52.268;10.506;2023-05-10T07:07:54;99905.63;;;12.47;92.96
32638;BME280;19045;52.268;10.506;2023-05-10T07:10:21;99909.09;;;12.52;93.22
32638;BME280;19045;52.268;10.506;2023-05-10T07:12:49;99906.31;;;12.62;92.01
32638;BME280;19045;52.268;10.506;2023-05-10T07:15:16;99915.53;;;12.85;91.45
32638;BME280;19045;52.268;10.506;2023-05-10T07:17:42;99915.34;;;13.05;90.25
32638;BME280;19045;52.268;10.506;2023-05-10T07:20:09;99921.88;;;13.28;90.73
32638;BME280;19045;52.268;10.506;2023-05-10T07:22:36;99916.81;;;13.45;89.26
32638;BME280;19045;52.268;10.506;2023-05-10T07:25:03;99923.31;;;13.63;88.96
32638;BME280;19045;52.268;10.506;2023-05-10T07:27:30;99929.31;;;13.60;89.28
32638;BME280;19045;52.268;10.506;2023-05-10T07:29:59;99940.19;;;13.31;90.79
32638;BME280;19045;52.268;10.506;2023-05-10T07:32:28;99934.63;;;13.22;91.92
32638;BME280;19045;52.268;10.506;2023-05-10T07:34:55;99943.47;;;13.23;93.10
32638;BME280;19045;52.268;10.506;2023-05-10T07:37:22;99939.88;;;13.09;94.05
32638;BME280;19045;52.268;10.506;2023-05-10T07:39:48;99931.78;;;13.04;95.84
32638;BME280;19045;52.268;10.506;2023-05-10T07:42:15;99941.84;;;12.98;96.27
32638;BME280;19045;52.268;10.506;2023-05-10T07:44:42;99943.00;;;12.87;96.90
32638;BME280;19045;52.268;10.506;2023-05-10T07:47:10;99938.41;;;12.92;97.36
32638;BME280;19045;52.268;10.506;2023-05-10T07:49:36;99945.00;;;13.05;97.00
32638;BME280;19045;52.268;10.506;2023-05-10T07:52:03;99951.16;;;13.11;97.16
32638;BME280;19045;52.268;10.506;2023-05-10T07:54:30;99949.75;;;13.18;97.56
32638;BME280;19045;52.268;10.506;2023-05-10T07:56:56;99941.91;;;13.22;97.70
32638;BME280;19045;52.268;10.506;2023-05-10T07:59:25;99946.41;;;13.26;98.22
32638;BME280;19045;52.268;10.506;2023-05-10T08:01:51;99946.59;;;13.35;98.54
32638;BME280;19045;52.268;10.506;2023-05-10T08:04:19;99934.94;;;13.39;98.68
32638;BME280;19045;52.268;10.506;2023-05-10T08:06:46;99933.75;;;13.51;99.00
32638;BME280;19045;52.268;10.506;2023-05-10T08:09:13;99928.78;;;13.81;98.08
32638;BME280;19045;52.268;10.506;2023-05-10T08:11:39;99935.25;;;13.80;96.61
32638;BME280;19045;52.268;10.506;2023-05-10T08:14:06;99944.09;;;13.86;97.29
32638;BME280;19045;52.268;10.506;2023-05-10T08:16:32;99948.50;;;14.01;96.94
32638;BME280;19045;52.268;10.506;2023-05-10T08:18:59;99949.44;;;14.10;96.59
32638;BME280;19045;52.268;10.506;2023-05-10T08:21:27;99965.06;;;14.13;97.16
32638;BME280;19045;52.268;10.506;2023-05-10T08:23:54;99970.91;;;14.20;97.41
32638;BME280;19045;52.268;10.506;2023-05-10T08:26:21;99971.63;;;14.07;98.40
32638;BME280;19045;52.268;10.506;2023-05-10T08:28:47;99973.75;;;14.10;99.31
32638;BME280;19045;52.268;10.506;2023-05-10T08:31:14;99986.53;;;14.04;100.00
32638;BME280;19045;52.268;10.506;2023-05-10T08:33:41;99986.00;;;14.02;100.00
32638;BME280;19045;52.268;10.506;2023-05-10T08:36:08;99993.91;;;13.98;100.00
32638;BME280;19045;52.268;10.506;2023-05-10T08:38:37;99994.66;;;13.99;100.00
32638;BME280;19045;52.268;10.506;2023-05-10T08:41:04;99999.84;;;13.95;100.00
32638;BME280;19045;52.268;10.506;2023-05-10T08:43:31;99992.28;;;13.97;100.00
32638;BME280;19045;52.268;10.506;2023-05-10T08:46:00;100002.97;;;13.84;100.00
32638;BME280;19045;52.268;10.506;2023-05-10T08:48:29;99999.97;;;13.85;100.00
32638;BME280;19045;52.268;10.506;2023-05-10T08:50:58;100003.78;;;13.84;100.00
32638;BME280;19045;52.268;10.506;2023-05-10T08:53:26;100005.91;;;13.87;100.00
32638;BME280;19045;52.268;10.506;2023-05-10T08:55:55;100012.38;;;13.86;100.00
32638;BME280;19045;52.268;10.506;2023-05-10T08:58:21;100007.81;;;13.87;100.00
32638;BME280;19045;52.268;10.506;2023-05-10T09:00:49;100018.69;;;13.82;100.00
32638;BME280;19045;52.268;10.506;2023-05-10T09:03:16;100017.63;;;13.78;100.00
32638;BME280;19045;52.268;10.506;2023-05-10T09:05:44;100019.28;;;13.74;100.00
32638;BME280;19045;52.268;10.506;2023-05-10T09:08:11;100026.19;;;13.85;100.00
32638;BME280;19045;52.268;10.506;2023-05-10T09:10:38;100027.78;;;13.86;100.00
32638;BME280;19045;52.268;10.506;2023-05-10T09:13:09;100025.63;;;13.88;100.00
32638;BME280;19045;52.268;10.506;2023-05-10T09:15:36;100030.47;;;13.86;100.00
32638;BME280;19045;52.268;10.506;2023-05-10T09:18:03;100035.53;;;13.92;100.00
32638;BME280;19045;52.268;10.506;2023-05-10T09:20:30;100038.13;;;14.03;100.00
32638;BME280;19045;52.268;10.506;2023-05-10T09:22:56;100031.41;;;14.00;100.00
32638;BME280;19045;52.268;10.506;2023-05-10T09:25:23;100031.75;;;13.93;100.00
32638;BME280;19045;52.268;10.506;2023-05-10T09:27:50;100043.06;;;13.95;100.00
32638;BME280;19045;52.268;10.506;2023-05-10T09:30:23;100043.00;;;14.01;100.00
32638;BME280;19045;52.268;10.506;2023-05-10T09:32:51;100047.91;;;13.98;100.00
32638;BME280;19045;52.268;10.506;2023-05-10T09:35:20;100051.47;;;13.94;100.00
32638;BME280;19045;52.268;10.506;2023-05-10T09:37:48;100052.53;;;13.93;100.00
32638;BME280;19045;52.268;10.506;2023-05-10T09:40:18;100057.94;;;13.93;100.00
32638;BME280;19045;52.268;10.506;2023-05-10T09:42:51;100055.31;;;13.88;100.00
32638;BME280;19045;52.268;10.506;2023-05-10T09:45:20;100062.16;;;13.80;100.00
32638;BME280;19045;52.268;10.506;2023-05-10T09:47:47;100058.72;;;13.98;100.00
32638;BME280;19045;52.268;10.506;2023-05-10T09:50:14;100061.97;;;13.95;100.00
32638;BME280;19045;52.268;10.506;2023-05-10T09:52:48;100068.81;;;13.88;100.00
32638;BME280;19045;52.268;10.506;2023-05-10T09:55:16;100072.31;;;13.88;100.00
32638;BME280;19045;52.268;10.506;2023-05-10T09:57:43;100074.78;;;14.09;100.00
32638;BME280;19045;52.268;10.506;2023-05-10T10:00:10;100079.91;;;14.10;100.00
32638;BME280;19045;52.268;10.506;2023-05-10T10:02:43;100081.72;;;14.38;100.00
32638;BME280;19045;52.268;10.506;2023-05-10T10:05:13;100086.00;;;14.63;100.00
32638;BME280;19045;52.268;10.506;2023-05-10T10:07:40;100083.06;;;14.78;100.00
32638;BME280;19045;52.268;10.506;2023-05-10T10:10:08;100087.31;;;14.84;100.00
32638;BME280;19045;52.268;10.506;2023-05-10T10:12:38;100090.38;;;14.78;100.00
32638;BME280;19045;52.268;10.506;2023-05-10T10:15:07;100089.41;;;14.50;100.00
32638;BME280;19045;52.268;10.506;2023-05-10T10:17:35;100097.16;;;14.33;100.00
32638;BME280;19045;52.268;10.506;2023-05-10T10:20:05;100104.25;;;14.29;100.00
32638;BME280;19045;52.268;10.506;2023-05-10T10:22:32;100101.66;;;14.19;100.00
32638;BME280;19045;52.268;10.506;2023-05-10T10:24:59;100102.94;;;14.03;100.00
32638;BME280;19045;52.268;10.506;2023-05-10T10:27:31;100108.06;;;14.04;100.00
32638;BME280;19045;52.268;10.506;2023-05-10T10:30:06;100100.41;;;14.11;100.00
32638;BME280;19045;52.268;10.506;2023-05-10T10:32:57;100112.13;;;14.25;100.00
32638;BME280;19045;52.268;10.506;2023-05-10T10:35:30;100108.19;;;14.41;100.00
32638;BME280;19045;52.268;10.506;2023-05-10T10:37:57;100106.94;;;14.53;100.00
32638;BME280;19045;52.268;10.506;2023-05-10T10:40:25;100102.94;;;14.69;100.00
32638;BME280;19045;52.268;10.506;2023-05-10T10:42:52;100108.13;;;14.84;100.00
32638;BME280;19045;52.268;10.506;2023-05-10T10:45:20;100118.94;;;15.02;100.00
32638;BME280;19045;52.268;10.506;2023-05-10T10:47:47;100108.50;;;14.96;100.00
32638;BME280;19045;52.268;10.506;2023-05-10T10:50:15;100109.59;;;14.95;100.00
32638;BME280;19045;52.268;10.506;2023-05-10T10:52:44;100115.00;;;14.95;100.00
32638;BME280;19045;52.268;10.506;2023-05-10T10:55:12;100116.84;;;14.81;100.00
32638;BME280;19045;52.268;10.506;2023-05-10T10:57:44;100117.84;;;14.85;100.00
32638;BME280;19045;52.268;10.506;2023-05-10T11:00:26;100117.41;;;14.96;100.00
32638;BME280;19045;52.268;10.506;2023-05-10T11:02:55;100122.47;;;14.84;100.00
32638;BME280;19045;52.268;10.506;2023-05-10T11:05:34;100118.22;;;14.97;100.00
32638;BME280;19045;52.268;10.506;2023-05-10T11:08:08;100122.91;;;14.73;100.00
32638;BME280;19045;52.268;10.506;2023-05-10T11:10:35;100129.38;;;14.72;100.00
32638;BME280;19045;52.268;10.506;2023-05-10T11:13:03;100124.56;;;14.69;100.00
32638;BME280;19045;52.268;10.506;2023-05-10T11:15:31;100132.09;;;14.72;100.00
32638;BME280;19045;52.268;10.506;2023-05-10T11:17:58;100138.41;;;14.43;100.00
32638;BME280;19045;52.268;10.506;2023-05-10T11:20:27;100143.94;;;14.76;100.00
32638;BME280;19045;52.268;10.506;2023-05-10T11:23:12;100138.88;;;14.69;100.00
32638;BME280;19045;52.268;10.506;2023-05-10T11:25:41;100134.81;;;15.09;100.00
32638;BME280;19045;52.268;10.506;2023-05-10T11:28:09;100142.44;;;15.39;100.00
32638;BME280;19045;52.268;10.506;2023-05-10T11:30:36;100140.53;;;15.59;100.00
32638;BME280;19045;52.268;10.506;2023-05-10T11:33:02;100143.16;;;15.64;100.00
32638;BME280;19045;52.268;10.506;2023-05-10T11:35:29;100142.78;;;15.70;100.00
32638;BME280;19045;52.268;10.506;2023-05-10T11:37:56;100142.22;;;15.87;100.00
32638;BME280;19045;52.268;10.506;2023-05-10T11:40:51;100153.06;;;16.00;100.00
32638;BME280;19045;52.268;10.506;2023-05-10T11:43:27;100156.06;;;15.99;100.00
32638;BME280;19045;52.268;10.506;2023-05-10T11:45:55;100157.44;;;15.83;100.00
32638;BME280;19045;52.268;10.506;2023-05-10T11:48:22;100162.09;;;15.96;100.00
32638;BME280;19045;52.268;10.506;2023-05-10T11:50:49;100163.56;;;15.88;97.86
32638;BME280;19045;52.268;10.506;2023-05-10T11:53:16;100163.94;;;15.82;97.76
32638;BME280;19045;52.268;10.506;2023-05-10T11:55:43;100156.47;;;16.06;97.93
32638;BME280;19045;52.268;10.506;2023-05-10T11:58:11;100160.38;;;16.27;96.75
32638;BME280;19045;52.268;10.506;2023-05-10T12:00:38;100161.72;;;16.43;93.56
32638;BME280;19045;52.268;10.506;2023-05-10T12:03:05;100158.69;;;16.72;93.48
32638;BME280;19045;52.268;10.506;2023-05-10T12:05:32;100161.94;;;17.10;91.34
32638;BME280;19045;52.268;10.506;2023-05-10T12:08:13;100153.94;;;17.49;89.75
32638;BME280;19045;52.268;10.506;2023-05-10T12:10:40;100165.09;;;17.92;87.74
32638;BME280;19045;52.268;10.506;2023-05-10T12:13:25;100166.94;;;18.14;81.93
32638;BME280;19045;52.268;10.506;2023-05-10T12:15:52;100170.25;;;18.02;81.67
32638;BME280;19045;52.268;10.506;2023-05-10T12:18:22;100171.94;;;17.90;82.65
32638;BME280;19045;52.268;10.506;2023-05-10T12:20:51;100172.31;;;17.75;82.12
32638;BME280;19045;52.268;10.506;2023-05-10T12:23:19;100168.63;;;17.71;84.23
32638;BME280;19045;52.268;10.506;2023-05-10T12:25:46;100167.28;;;18.21;83.57
32638;BME280;19045;52.268;10.506;2023-05-10T12:28:14;100184.28;;;18.75;81.46
32638;BME280;19045;52.268;10.506;2023-05-10T12:30:45;100175.72;;;19.16;79.95
32638;BME280;19045;52.268;10.506;2023-05-10T12:33:13;100174.94;;;19.41;77.26
32638;BME280;19045;52.268;10.506;2023-05-10T12:35:46;100166.41;;;19.68;75.82
32638;BME280;19045;52.268;10.506;2023-05-10T12:38:28;100179.56;;;19.57;73.60
32638;BME280;19045;52.268;10.506;2023-05-10T12:40:56;100185.31;;;19.65;73.67
32638;BME280;19045;52.268;10.506;2023-05-10T12:43:24;100178.25;;;19.81;74.21
32638;BME280;19045;52.268;10.506;2023-05-10T12:45:51;100189.94;;;19.30;69.67
32638;BME280;19045;52.268;10.506;2023-05-10T12:48:17;100183.06;;;18.11;76.19
32638;BME280;19045;52.268;10.506;2023-05-10T12:50:44;100186.50;;;18.25;75.78
32638;BME280;19045;52.268;10.506;2023-05-10T12:53:11;100183.78;;;18.55;75.36
32638;BME280;19045;52.268;10.506;2023-05-10T12:55:39;100188.75;;;18.71;72.78